Main page
METAR-TAF:

METAR-TAF

Airports :

Port Isabel-Cameron County Airport

Port Isabel, Texas, United States

latitude: 26-09-33N, longitude: 097-20-15W, elevation: 16 ft

Current weather observation

The report was made 56 minutes ago, at 20:53 UTC
Wind 25 mph from the South with gusts up to 33 mph
Temperature 81°F
Humidity 62%
Pressure 29.79 in. Hg
Visibility: 10 miles
Few clouds at a height of 2600 ft

METAR: KPIL 172053Z AUTO 17022G29KT 10SM FEW026 27/19 A2979 RMK AO2 PK WND 16030/2036 SLP086 T02720194 56033

Time: 15:49 (21:49 UTC)


TAF: missing

Weather observations and forecasts of more than 4000 airports (METAR and TAF reports).

The available stations are represented by yellow and red dots on the map.

Hover mouse over dot to see the name of the station.

Then click to see weather observations and forecasts.

To change the map : click on the green buttons with a black cross to zoom in, on the green button with a dash to zoom out, or on the green arrows for adjacent maps.


METAR-TAF: